sensor_id;sensor_type;location;lat;lon;timestamp;P1;durP1;ratioP1;P2;durP2;ratioP2
7233;SDS011;3658;47.992;10.158;2024-02-23T00:01:10;0.90;;;0.90;;
7233;SDS011;3658;47.992;10.158;2024-02-23T00:03:37;1.00;;;1.00;;
7233;SDS011;3658;47.992;10.158;2024-02-23T00:06:04;1.10;;;1.10;;
7233;SDS011;3658;47.992;10.158;2024-02-23T00:08:32;1.10;;;1.10;;
7233;SDS011;3658;47.992;10.158;2024-02-23T00:10:59;0.97;;;0.97;;
7233;SDS011;3658;47.992;10.158;2024-02-23T00:13:25;1.13;;;1.10;;
7233;SDS011;3658;47.992;10.158;2024-02-23T00:15:52;1.00;;;1.00;;
7233;SDS011;3658;47.992;10.158;2024-02-23T00:18:19;1.20;;;1.10;;
7233;SDS011;3658;47.992;10.158;2024-02-23T00:20:46;0.90;;;0.90;;
7233;SDS011;3658;47.992;10.158;2024-02-23T00:23:13;1.07;;;1.00;;
7233;SDS011;3658;47.992;10.158;2024-02-23T00:25:41;1.07;;;1.07;;
7233;SDS011;3658;47.992;10.158;2024-02-23T00:28:08;1.07;;;1.07;;
7233;SDS011;3658;47.992;10.158;2024-02-23T00:30:34;1.10;;;1.03;;
7233;SDS011;3658;47.992;10.158;2024-02-23T00:33:01;0.97;;;0.97;;
7233;SDS011;3658;47.992;10.158;2024-02-23T00:35:28;1.00;;;1.00;;
7233;SDS011;3658;47.992;10.158;2024-02-23T00:37:55;1.10;;;1.00;;
7233;SDS011;3658;47.992;10.158;2024-02-23T00:40:22;1.10;;;1.00;;
7233;SDS011;3658;47.992;10.158;2024-02-23T00:42:50;0.90;;;0.90;;
7233;SDS011;3658;47.992;10.158;2024-02-23T00:45:17;1.00;;;1.00;;
7233;SDS011;3658;47.992;10.158;2024-02-23T00:47:44;0.90;;;0.90;;
7233;SDS011;3658;47.992;10.158;2024-02-23T00:50:12;0.90;;;0.90;;
7233;SDS011;3658;47.992;10.158;2024-02-23T00:52:39;0.90;;;0.90;;
7233;SDS011;3658;47.992;10.158;2024-02-23T00:55:07;0.90;;;0.90;;
7233;SDS011;3658;47.992;10.158;2024-02-23T00:57:34;0.97;;;0.97;;
7233;SDS011;3658;47.992;10.158;2024-02-23T01:00:02;0.87;;;0.87;;
7233;SDS011;3658;47.992;10.158;2024-02-23T01:02:30;1.07;;;1.00;;
7233;SDS011;3658;47.992;10.158;2024-02-23T01:04:58;1.00;;;1.00;;
7233;SDS011;3658;47.992;10.158;2024-02-23T01:07:24;0.80;;;0.80;;
7233;SDS011;3658;47.992;10.158;2024-02-23T01:09:51;0.80;;;0.80;;
7233;SDS011;3658;47.992;10.158;2024-02-23T01:12:18;0.97;;;0.97;;
7233;SDS011;3658;47.992;10.158;2024-02-23T01:14:44;1.03;;;1.03;;
7233;SDS011;3658;47.992;10.158;2024-02-23T01:17:14;0.90;;;0.90;;
7233;SDS011;3658;47.992;10.158;2024-02-23T01:19:43;0.90;;;0.90;;
7233;SDS011;3658;47.992;10.158;2024-02-23T01:22:09;0.83;;;0.83;;
7233;SDS011;3658;47.992;10.158;2024-02-23T01:24:36;0.90;;;0.90;;
7233;SDS011;3658;47.992;10.158;2024-02-23T01:27:03;0.90;;;0.90;;
7233;SDS011;3658;47.992;10.158;2024-02-23T01:29:30;0.73;;;0.73;;
7233;SDS011;3658;47.992;10.158;2024-02-23T01:31:57;0.80;;;0.80;;
7233;SDS011;3658;47.992;10.158;2024-02-23T01:34:26;0.93;;;0.93;;
7233;SDS011;3658;47.992;10.158;2024-02-23T01:36:52;0.93;;;0.93;;
7233;SDS011;3658;47.992;10.158;2024-02-23T01:39:19;0.90;;;0.90;;
7233;SDS011;3658;47.992;10.158;2024-02-23T01:41:46;0.80;;;0.80;;
7233;SDS011;3658;47.992;10.158;2024-02-23T01:44:13;0.80;;;0.80;;
7233;SDS011;3658;47.992;10.158;2024-02-23T01:46:42;0.70;;;0.70;;
7233;SDS011;3658;47.992;10.158;2024-02-23T01:49:09;0.80;;;0.80;;
7233;SDS011;3658;47.992;10.158;2024-02-23T01:51:37;0.80;;;0.80;;
7233;SDS011;3658;47.992;10.158;2024-02-23T01:54:04;0.90;;;0.90;;
7233;SDS011;3658;47.992;10.158;2024-02-23T01:56:32;0.93;;;0.93;;
7233;SDS011;3658;47.992;10.158;2024-02-23T01:59:01;1.00;;;1.00;;
7233;SDS011;3658;47.992;10.158;2024-02-23T02:01:29;0.90;;;0.90;;
7233;SDS011;3658;47.992;10.158;2024-02-23T02:03:56;0.80;;;0.80;;
7233;SDS011;3658;47.992;10.158;2024-02-23T02:06:24;0.90;;;0.90;;
7233;SDS011;3658;47.992;10.158;2024-02-23T02:08:52;1.00;;;1.00;;
7233;SDS011;3658;47.992;10.158;2024-02-23T02:11:19;0.80;;;0.80;;
7233;SDS011;3658;47.992;10.158;2024-02-23T02:13:46;0.83;;;0.83;;
7233;SDS011;3658;47.992;10.158;2024-02-23T02:16:13;0.90;;;0.90;;
7233;SDS011;3658;47.992;10.158;2024-02-23T02:18:39;0.80;;;0.80;;
7233;SDS011;3658;47.992;10.158;2024-02-23T02:21:06;0.80;;;0.80;;
7233;SDS011;3658;47.992;10.158;2024-02-23T02:23:33;0.90;;;0.90;;
7233;SDS011;3658;47.992;10.158;2024-02-23T02:26:03;0.70;;;0.70;;
7233;SDS011;3658;47.992;10.158;2024-02-23T02:28:30;0.80;;;0.80;;
7233;SDS011;3658;47.992;10.158;2024-02-23T02:30:57;0.90;;;0.90;;
7233;SDS011;3658;47.992;10.158;2024-02-23T02:33:24;0.90;;;0.90;;
7233;SDS011;3658;47.992;10.158;2024-02-23T02:35:51;0.80;;;0.80;;
7233;SDS011;3658;47.992;10.158;2024-02-23T02:38:17;0.80;;;0.80;;
7233;SDS011;3658;47.992;10.158;2024-02-23T02:40:44;0.90;;;0.90;;
7233;SDS011;3658;47.992;10.158;2024-02-23T02:43:12;0.90;;;0.90;;
7233;SDS011;3658;47.992;10.158;2024-02-23T02:45:39;0.73;;;0.73;;
7233;SDS011;3658;47.992;10.158;2024-02-23T02:48:06;0.80;;;0.80;;
7233;SDS011;3658;47.992;10.158;2024-02-23T02:50:33;0.80;;;0.80;;
7233;SDS011;3658;47.992;10.158;2024-02-23T02:53:00;0.80;;;0.80;;
7233;SDS011;3658;47.992;10.158;2024-02-23T02:55:27;0.80;;;0.80;;
7233;SDS011;3658;47.992;10.158;2024-02-23T02:57:54;0.80;;;0.80;;
7233;SDS011;3658;47.992;10.158;2024-02-23T03:00:22;0.70;;;0.70;;
7233;SDS011;3658;47.992;10.158;2024-02-23T03:02:49;1.00;;;0.97;;
7233;SDS011;3658;47.992;10.158;2024-02-23T03:05:15;0.70;;;0.70;;
7233;SDS011;3658;47.992;10.158;2024-02-23T03:07:42;0.90;;;0.90;;
7233;SDS011;3658;47.992;10.158;2024-02-23T03:10:09;0.80;;;0.80;;
7233;SDS011;3658;47.992;10.158;2024-02-23T03:12:36;0.73;;;0.73;;
7233;SDS011;3658;47.992;10.158;2024-02-23T03:15:03;0.80;;;0.80;;
7233;SDS011;3658;47.992;10.158;2024-02-23T03:17:32;0.90;;;0.90;;
7233;SDS011;3658;47.992;10.158;2024-02-23T03:19:59;0.80;;;0.80;;
7233;SDS011;3658;47.992;10.158;2024-02-23T03:22:26;0.80;;;0.80;;
7233;SDS011;3658;47.992;10.158;2024-02-23T03:24:52;0.80;;;0.80;;
7233;SDS011;3658;47.992;10.158;2024-02-23T03:27:19;0.70;;;0.70;;
7233;SDS011;3658;47.992;10.158;2024-02-23T03:29:47;0.80;;;0.80;;
7233;SDS011;3658;47.992;10.158;2024-02-23T03:32:14;0.80;;;0.80;;
7233;SDS011;3658;47.992;10.158;2024-02-23T03:34:42;0.80;;;0.80;;
7233;SDS011;3658;47.992;10.158;2024-02-23T03:37:09;0.80;;;0.80;;
7233;SDS011;3658;47.992;10.158;2024-02-23T03:39:35;0.80;;;0.80;;
7233;SDS011;3658;47.992;10.158;2024-02-23T03:42:03;0.90;;;0.90;;
7233;SDS011;3658;47.992;10.158;2024-02-23T03:44:30;0.70;;;0.70;;
7233;SDS011;3658;47.992;10.158;2024-02-23T03:46:57;0.80;;;0.80;;
7233;SDS011;3658;47.992;10.158;2024-02-23T03:49:23;0.80;;;0.80;;
7233;SDS011;3658;47.992;10.158;2024-02-23T03:51:52;0.70;;;0.70;;
7233;SDS011;3658;47.992;10.158;2024-02-23T03:54:18;0.80;;;0.80;;
7233;SDS011;3658;47.992;10.158;2024-02-23T03:56:45;0.70;;;0.70;;
7233;SDS011;3658;47.992;10.158;2024-02-23T03:59:12;0.60;;;0.60;;
7233;SDS011;3658;47.992;10.158;2024-02-23T04:01:39;0.80;;;0.80;;
7233;SDS011;3658;47.992;10.158;2024-02-23T04:04:06;0.80;;;0.80;;
7233;SDS011;3658;47.992;10.158;2024-02-23T04:06:33;0.77;;;0.77;;
7233;SDS011;3658;47.992;10.158;2024-02-23T04:09:02;0.80;;;0.80;;
7233;SDS011;3658;47.992;10.158;2024-02-23T04:11:30;0.70;;;0.70;;
7233;SDS011;3658;47.992;10.158;2024-02-23T04:13:56;0.70;;;0.70;;
7233;SDS011;3658;47.992;10.158;2024-02-23T04:16:23;0.70;;;0.70;;
7233;SDS011;3658;47.992;10.158;2024-02-23T04:18:50;0.83;;;0.83;;
7233;SDS011;3658;47.992;10.158;2024-02-23T04:21:17;0.70;;;0.70;;
7233;SDS011;3658;47.992;10.158;2024-02-23T04:23:44;0.70;;;0.70;;
7233;SDS011;3658;47.992;10.158;2024-02-23T04:26:12;1.17;;;1.17;;
7233;SDS011;3658;47.992;10.158;2024-02-23T04:28:39;0.80;;;0.80;;
7233;SDS011;3658;47.992;10.158;2024-02-23T04:31:07;0.80;;;0.80;;
7233;SDS011;3658;47.992;10.158;2024-02-23T04:33:34;0.70;;;0.70;;
7233;SDS011;3658;47.992;10.158;2024-02-23T04:36:01;0.70;;;0.70;;
7233;SDS011;3658;47.992;10.158;2024-02-23T04:38:28;0.70;;;0.70;;
7233;SDS011;3658;47.992;10.158;2024-02-23T04:40:55;0.70;;;0.70;;
7233;SDS011;3658;47.992;10.158;2024-02-23T04:43:24;0.80;;;0.80;;
7233;SDS011;3658;47.992;10.158;2024-02-23T04:45:50;0.80;;;0.80;;
7233;SDS011;3658;47.992;10.158;2024-02-23T04:48:17;0.90;;;0.90;;
7233;SDS011;3658;47.992;10.158;2024-02-23T04:50:44;0.80;;;0.80;;
7233;SDS011;3658;47.992;10.158;2024-02-23T04:53:11;0.77;;;0.77;;
7233;SDS011;3658;47.992;10.158;2024-02-23T04:55:37;0.70;;;0.70;;
7233;SDS011;3658;47.992;10.158;2024-02-23T04:58:04;0.80;;;0.80;;
7233;SDS011;3658;47.992;10.158;2024-02-23T05:00:33;0.70;;;0.70;;
7233;SDS011;3658;47.992;10.158;2024-02-23T05:03:00;0.70;;;0.70;;
7233;SDS011;3658;47.992;10.158;2024-02-23T05:05:28;0.80;;;0.80;;
7233;SDS011;3658;47.992;10.158;2024-02-23T05:07:55;0.77;;;0.77;;
7233;SDS011;3658;47.992;10.158;2024-02-23T05:10:22;0.80;;;0.80;;
7233;SDS011;3658;47.992;10.158;2024-02-23T05:12:48;0.70;;;0.70;;
7233;SDS011;3658;47.992;10.158;2024-02-23T05:15:15;0.90;;;0.90;;
7233;SDS011;3658;47.992;10.158;2024-02-23T05:17:43;0.80;;;0.80;;
7233;SDS011;3658;47.992;10.158;2024-02-23T05:20:11;0.77;;;0.77;;
7233;SDS011;3658;47.992;10.158;2024-02-23T05:22:39;0.80;;;0.80;;
7233;SDS011;3658;47.992;10.158;2024-02-23T05:25:06;0.80;;;0.80;;
7233;SDS011;3658;47.992;10.158;2024-02-23T05:27:33;0.70;;;0.70;;
7233;SDS011;3658;47.992;10.158;2024-02-23T05:30:01;0.70;;;0.70;;
7233;SDS011;3658;47.992;10.158;2024-02-23T05:32:28;0.70;;;0.70;;
7233;SDS011;3658;47.992;10.158;2024-02-23T05:34:56;0.70;;;0.70;;
7233;SDS011;3658;47.992;10.158;2024-02-23T05:37:23;0.80;;;0.80;;
7233;SDS011;3658;47.992;10.158;2024-02-23T05:39:52;0.80;;;0.80;;
7233;SDS011;3658;47.992;10.158;2024-02-23T05:42:19;0.90;;;0.90;;
7233;SDS011;3658;47.992;10.158;2024-02-23T05:44:45;0.80;;;0.80;;
7233;SDS011;3658;47.992;10.158;2024-02-23T05:47:14;0.80;;;0.80;;
7233;SDS011;3658;47.992;10.158;2024-02-23T05:49:41;0.70;;;0.70;;
7233;SDS011;3658;47.992;10.158;2024-02-23T05:52:09;1.03;;;1.00;;
7233;SDS011;3658;47.992;10.158;2024-02-23T05:54:36;0.80;;;0.80;;
7233;SDS011;3658;47.992;10.158;2024-02-23T05:57:03;0.80;;;0.80;;
7233;SDS011;3658;47.992;10.158;2024-02-23T05:59:30;0.70;;;0.70;;
7233;SDS011;3658;47.992;10.158;2024-02-23T06:01:57;0.80;;;0.80;;
7233;SDS011;3658;47.992;10.158;2024-02-23T06:04:23;0.90;;;0.90;;
7233;SDS011;3658;47.992;10.158;2024-02-23T06:06:50;0.80;;;0.80;;
7233;SDS011;3658;47.992;10.158;2024-02-23T06:09:18;0.70;;;0.70;;
7233;SDS011;3658;47.992;10.158;2024-02-23T06:11:45;0.80;;;0.80;;
7233;SDS011;3658;47.992;10.158;2024-02-23T06:14:12;0.70;;;0.70;;
7233;SDS011;3658;47.992;10.158;2024-02-23T06:16:39;0.70;;;0.70;;
7233;SDS011;3658;47.992;10.158;2024-02-23T06:19:06;0.80;;;0.80;;
7233;SDS011;3658;47.992;10.158;2024-02-23T06:21:33;0.73;;;0.73;;
7233;SDS011;3658;47.992;10.158;2024-02-23T06:24:00;0.80;;;0.80;;
7233;SDS011;3658;47.992;10.158;2024-02-23T06:26:29;0.80;;;0.80;;
7233;SDS011;3658;47.992;10.158;2024-02-23T06:28:55;0.73;;;0.73;;
7233;SDS011;3658;47.992;10.158;2024-02-23T06:31:22;0.80;;;0.80;;
7233;SDS011;3658;47.992;10.158;2024-02-23T06:33:50;0.90;;;0.90;;
7233;SDS011;3658;47.992;10.158;2024-02-23T06:36:17;0.80;;;0.80;;
7233;SDS011;3658;47.992;10.158;2024-02-23T06:38:44;0.80;;;0.80;;
7233;SDS011;3658;47.992;10.158;2024-02-23T06:41:11;0.80;;;0.80;;
7233;SDS011;3658;47.992;10.158;2024-02-23T06:43:39;0.70;;;0.70;;
7233;SDS011;3658;47.992;10.158;2024-02-23T06:46:06;0.80;;;0.80;;
7233;SDS011;3658;47.992;10.158;2024-02-23T06:48:33;0.97;;;0.97;;
7233;SDS011;3658;47.992;10.158;2024-02-23T06:51:00;0.70;;;0.70;;
7233;SDS011;3658;47.992;10.158;2024-02-23T06:53:28;0.80;;;0.80;;
7233;SDS011;3658;47.992;10.158;2024-02-23T06:55:55;0.90;;;0.90;;
7233;SDS011;3658;47.992;10.158;2024-02-23T06:58:24;0.80;;;0.80;;
7233;SDS011;3658;47.992;10.158;2024-02-23T07:00:52;0.80;;;0.80;;
7233;SDS011;3658;47.992;10.158;2024-02-23T07:03:18;0.80;;;0.80;;
7233;SDS011;3658;47.992;10.158;2024-02-23T07:05:45;0.83;;;0.83;;
7233;SDS011;3658;47.992;10.158;2024-02-23T07:08:13;0.73;;;0.73;;
7233;SDS011;3658;47.992;10.158;2024-02-23T07:10:39;0.80;;;0.80;;
7233;SDS011;3658;47.992;10.158;2024-02-23T07:13:06;0.70;;;0.70;;
7233;SDS011;3658;47.992;10.158;2024-02-23T07:15:33;0.90;;;0.80;;
7233;SDS011;3658;47.992;10.158;2024-02-23T07:18:02;0.87;;;0.87;;
7233;SDS011;3658;47.992;10.158;2024-02-23T07:20:29;0.70;;;0.70;;
7233;SDS011;3658;47.992;10.158;2024-02-23T07:22:56;0.90;;;0.90;;
7233;SDS011;3658;47.992;10.158;2024-02-23T07:25:22;0.77;;;0.77;;
7233;SDS011;3658;47.992;10.158;2024-02-23T07:27:49;0.77;;;0.73;;
7233;SDS011;3658;47.992;10.158;2024-02-23T07:30:16;0.80;;;0.80;;
7233;SDS011;3658;47.992;10.158;2024-02-23T07:32:43;0.57;;;0.57;;
7233;SDS011;3658;47.992;10.158;2024-02-23T07:35:12;0.73;;;0.73;;
7233;SDS011;3658;47.992;10.158;2024-02-23T07:37:39;0.80;;;0.80;;
7233;SDS011;3658;47.992;10.158;2024-02-23T07:40:07;0.90;;;0.90;;
7233;SDS011;3658;47.992;10.158;2024-02-23T07:42:34;0.70;;;0.70;;
7233;SDS011;3658;47.992;10.158;2024-02-23T07:45:01;0.90;;;0.90;;
7233;SDS011;3658;47.992;10.158;2024-02-23T07:47:29;0.83;;;0.83;;
7233;SDS011;3658;47.992;10.158;2024-02-23T07:49:56;0.83;;;0.83;;
7233;SDS011;3658;47.992;10.158;2024-02-23T07:52:24;0.80;;;0.80;;
7233;SDS011;3658;47.992;10.158;2024-02-23T07:54:51;0.80;;;0.80;;
7233;SDS011;3658;47.992;10.158;2024-02-23T07:57:18;0.87;;;0.87;;
7233;SDS011;3658;47.992;10.158;2024-02-23T07:59:45;0.80;;;0.80;;
7233;SDS011;3658;47.992;10.158;2024-02-23T08:02:12;0.70;;;0.70;;
7233;SDS011;3658;47.992;10.158;2024-02-23T08:04:39;0.80;;;0.80;;
7233;SDS011;3658;47.992;10.158;2024-02-23T08:07:07;0.80;;;0.80;;
7233;SDS011;3658;47.992;10.158;2024-02-23T08:09:35;0.80;;;0.80;;
7233;SDS011;3658;47.992;10.158;2024-02-23T08:12:02;0.80;;;0.80;;
7233;SDS011;3658;47.992;10.158;2024-02-23T08:14:29;0.87;;;0.87;;
7233;SDS011;3658;47.992;10.158;2024-02-23T08:16:55;0.80;;;0.80;;
7233;SDS011;3658;47.992;10.158;2024-02-23T08:19:22;0.60;;;0.60;;
7233;SDS011;3658;47.992;10.158;2024-02-23T08:21:49;0.90;;;0.90;;
7233;SDS011;3658;47.992;10.158;2024-02-23T08:24:15;0.90;;;0.90;;
7233;SDS011;3658;47.992;10.158;2024-02-23T08:26:44;0.70;;;0.70;;
7233;SDS011;3658;47.992;10.158;2024-02-23T08:29:10;0.90;;;0.90;;
7233;SDS011;3658;47.992;10.158;2024-02-23T08:31:37;1.00;;;1.00;;
7233;SDS011;3658;47.992;10.158;2024-02-23T08:34:04;0.70;;;0.70;;
7233;SDS011;3658;47.992;10.158;2024-02-23T08:36:31;0.80;;;0.80;;
7233;SDS011;3658;47.992;10.158;2024-02-23T08:38:58;0.80;;;0.80;;
7233;SDS011;3658;47.992;10.158;2024-02-23T08:41:25;0.80;;;0.80;;
7233;SDS011;3658;47.992;10.158;2024-02-23T08:43:53;0.80;;;0.80;;
7233;SDS011;3658;47.992;10.158;2024-02-23T08:46:20;0.80;;;0.80;;
7233;SDS011;3658;47.992;10.158;2024-02-23T08:48:47;0.87;;;0.87;;
7233;SDS011;3658;47.992;10.158;2024-02-23T08:51:14;0.90;;;0.90;;
7233;SDS011;3658;47.992;10.158;2024-02-23T08:53:41;0.70;;;0.70;;
7233;SDS011;3658;47.992;10.158;2024-02-23T08:56:08;0.87;;;0.87;;
7233;SDS011;3658;47.992;10.158;2024-02-23T08:58:35;0.90;;;0.90;;
7233;SDS011;3658;47.992;10.158;2024-02-23T09:01:03;0.87;;;0.87;;
7233;SDS011;3658;47.992;10.158;2024-02-23T09:03:30;0.70;;;0.70;;
7233;SDS011;3658;47.992;10.158;2024-02-23T09:05:57;0.80;;;0.80;;
7233;SDS011;3658;47.992;10.158;2024-02-23T09:08:23;0.83;;;0.83;;
7233;SDS011;3658;47.992;10.158;2024-02-23T09:10:50;0.70;;;0.70;;
7233;SDS011;3658;47.992;10.158;2024-02-23T09:13:17;0.70;;;0.70;;
7233;SDS011;3658;47.992;10.158;2024-02-23T09:15:44;0.80;;;0.80;;
7233;SDS011;3658;47.992;10.158;2024-02-23T09:18:12;0.80;;;0.80;;
7233;SDS011;3658;47.992;10.158;2024-02-23T09:20:39;1.10;;;1.00;;
7233;SDS011;3658;47.992;10.158;2024-02-23T09:23:06;0.80;;;0.80;;
7233;SDS011;3658;47.992;10.158;2024-02-23T09:25:32;0.80;;;0.80;;
7233;SDS011;3658;47.992;10.158;2024-02-23T09:27:59;0.80;;;0.80;;
7233;SDS011;3658;47.992;10.158;2024-02-23T09:30:26;0.70;;;0.70;;
7233;SDS011;3658;47.992;10.158;2024-02-23T09:32:52;0.70;;;0.70;;
7233;SDS011;3658;47.992;10.158;2024-02-23T09:35:20;0.90;;;0.90;;
7233;SDS011;3658;47.992;10.158;2024-02-23T09:37:47;0.90;;;0.90;;
7233;SDS011;3658;47.992;10.158;2024-02-23T09:40:14;0.80;;;0.80;;
7233;SDS011;3658;47.992;10.158;2024-02-23T09:42:41;0.70;;;0.70;;
7233;SDS011;3658;47.992;10.158;2024-02-23T09:45:08;0.77;;;0.70;;
7233;SDS011;3658;47.992;10.158;2024-02-23T09:47:37;0.93;;;0.93;;
7233;SDS011;3658;47.992;10.158;2024-02-23T09:50:05;0.90;;;0.90;;
7233;SDS011;3658;47.992;10.158;2024-02-23T09:52:34;0.70;;;0.70;;
7233;SDS011;3658;47.992;10.158;2024-02-23T09:55:00;0.90;;;0.90;;
7233;SDS011;3658;47.992;10.158;2024-02-23T09:57:28;0.90;;;0.90;;
7233;SDS011;3658;47.992;10.158;2024-02-23T09:59:55;0.90;;;0.73;;
7233;SDS011;3658;47.992;10.158;2024-02-23T10:02:22;0.80;;;0.80;;
7233;SDS011;3658;47.992;10.158;2024-02-23T10:04:49;0.90;;;0.90;;
7233;SDS011;3658;47.992;10.158;2024-02-23T10:07:17;0.90;;;0.90;;
7233;SDS011;3658;47.992;10.158;2024-02-23T10:09:45;0.87;;;0.80;;
7233;SDS011;3658;47.992;10.158;2024-02-23T10:12:12;0.87;;;0.87;;
7233;SDS011;3658;47.992;10.158;2024-02-23T10:14:40;0.90;;;0.90;;
7233;SDS011;3658;47.992;10.158;2024-02-23T10:17:06;1.13;;;0.87;;
7233;SDS011;3658;47.992;10.158;2024-02-23T10:19:33;0.93;;;0.93;;
7233;SDS011;3658;47.992;10.158;2024-02-23T10:22:00;0.90;;;0.90;;
7233;SDS011;3658;47.992;10.158;2024-02-23T10:24:27;0.80;;;0.80;;
7233;SDS011;3658;47.992;10.158;2024-02-23T10:26:55;0.87;;;0.80;;
7233;SDS011;3658;47.992;10.158;2024-02-23T10:29:22;0.90;;;0.90;;
7233;SDS011;3658;47.992;10.158;2024-02-23T10:31:49;0.93;;;0.93;;
7233;SDS011;3658;47.992;10.158;2024-02-23T10:34:18;0.80;;;0.80;;
7233;SDS011;3658;47.992;10.158;2024-02-23T10:36:46;0.93;;;0.90;;
7233;SDS011;3658;47.992;10.158;2024-02-23T10:39:15;1.00;;;1.00;;
7233;SDS011;3658;47.992;10.158;2024-02-23T10:41:44;0.90;;;0.90;;
7233;SDS011;3658;47.992;10.158;2024-02-23T10:44:19;1.00;;;1.00;;
7233;SDS011;3658;47.992;10.158;2024-02-23T10:46:47;1.27;;;1.17;;
7233;SDS011;3658;47.992;10.158;2024-02-23T10:49:16;0.90;;;0.90;;
7233;SDS011;3658;47.992;10.158;2024-02-23T10:51:46;0.90;;;0.90;;
7233;SDS011;3658;47.992;10.158;2024-02-23T10:54:15;0.90;;;0.90;;
7233;SDS011;3658;47.992;10.158;2024-02-23T10:56:44;0.80;;;0.80;;
7233;SDS011;3658;47.992;10.158;2024-02-23T10:59:13;1.00;;;1.00;;
7233;SDS011;3658;47.992;10.158;2024-02-23T11:01:43;1.20;;;1.10;;
7233;SDS011;3658;47.992;10.158;2024-02-23T11:04:12;0.80;;;0.80;;
7233;SDS011;3658;47.992;10.158;2024-02-23T11:06:38;1.20;;;1.10;;
7233;SDS011;3658;47.992;10.158;2024-02-23T11:09:06;1.20;;;1.07;;
7233;SDS011;3658;47.992;10.158;2024-02-23T11:11:34;1.00;;;1.00;;
7233;SDS011;3658;47.992;10.158;2024-02-23T11:14:02;1.03;;;1.00;;
7233;SDS011;3658;47.992;10.158;2024-02-23T11:16:33;1.20;;;1.10;;
7233;SDS011;3658;47.992;10.158;2024-02-23T11:19:06;1.20;;;1.10;;
7233;SDS011;3658;47.992;10.158;2024-02-23T11:21:34;1.33;;;1.23;;
7233;SDS011;3658;47.992;10.158;2024-02-23T11:24:02;1.30;;;1.20;;
7233;SDS011;3658;47.992;10.158;2024-02-23T11:26:30;1.30;;;1.20;;
7233;SDS011;3658;47.992;10.158;2024-02-23T11:28:58;1.37;;;1.27;;
7233;SDS011;3658;47.992;10.158;2024-02-23T11:31:29;1.57;;;1.47;;
7233;SDS011;3658;47.992;10.158;2024-02-23T11:33:57;1.17;;;1.07;;
7233;SDS011;3658;47.992;10.158;2024-02-23T11:36:27;1.50;;;1.40;;
7233;SDS011;3658;47.992;10.158;2024-02-23T11:38:56;1.40;;;1.30;;
7233;SDS011;3658;47.992;10.158;2024-02-23T11:41:24;1.30;;;1.20;;
7233;SDS011;3658;47.992;10.158;2024-02-23T11:43:51;1.40;;;1.20;;
7233;SDS011;3658;47.992;10.158;2024-02-23T11:46:18;1.60;;;1.50;;
7233;SDS011;3658;47.992;10.158;2024-02-23T11:48:46;1.47;;;1.37;;
7233;SDS011;3658;47.992;10.158;2024-02-23T11:51:18;1.60;;;1.50;;
7233;SDS011;3658;47.992;10.158;2024-02-23T11:53:47;1.50;;;1.40;;
7233;SDS011;3658;47.992;10.158;2024-02-23T11:56:14;1.50;;;1.40;;
7233;SDS011;3658;47.992;10.158;2024-02-23T11:58:41;1.70;;;1.60;;
7233;SDS011;3658;47.992;10.158;2024-02-23T12:01:08;1.50;;;1.40;;
7233;SDS011;3658;47.992;10.158;2024-02-23T12:03:35;1.60;;;1.50;;
7233;SDS011;3658;47.992;10.158;2024-02-23T12:06:04;1.43;;;1.30;;
7233;SDS011;3658;47.992;10.158;2024-02-23T12:08:31;1.50;;;1.40;;
7233;SDS011;3658;47.992;10.158;2024-02-23T12:11:04;1.50;;;1.40;;
7233;SDS011;3658;47.992;10.158;2024-02-23T12:13:33;1.53;;;1.43;;
7233;SDS011;3658;47.992;10.158;2024-02-23T12:16:00;1.53;;;1.43;;
7233;SDS011;3658;47.992;10.158;2024-02-23T12:18:27;1.40;;;1.30;;
7233;SDS011;3658;47.992;10.158;2024-02-23T12:20:58;1.50;;;1.40;;
7233;SDS011;3658;47.992;10.158;2024-02-23T12:23:25;1.77;;;1.60;;
7233;SDS011;3658;47.992;10.158;2024-02-23T12:25:52;1.93;;;1.60;;
7233;SDS011;3658;47.992;10.158;2024-02-23T12:28:22;1.50;;;1.40;;
7233;SDS011;3658;47.992;10.158;2024-02-23T12:30:58;1.63;;;1.53;;
7233;SDS011;3658;47.992;10.158;2024-02-23T12:33:26;1.60;;;1.50;;
7233;SDS011;3658;47.992;10.158;2024-02-23T12:35:54;1.50;;;1.40;;
7233;SDS011;3658;47.992;10.158;2024-02-23T12:38:21;1.40;;;1.30;;
7233;SDS011;3658;47.992;10.158;2024-02-23T12:40:48;1.57;;;1.47;;
7233;SDS011;3658;47.992;10.158;2024-02-23T12:43:13;1.70;;;1.60;;
7233;SDS011;3658;47.992;10.158;2024-02-23T12:45:42;1.63;;;1.40;;
7233;SDS011;3658;47.992;10.158;2024-02-23T12:48:10;1.50;;;1.40;;
7233;SDS011;3658;47.992;10.158;2024-02-23T12:50:37;1.53;;;1.43;;
7233;SDS011;3658;47.992;10.158;2024-02-23T12:53:04;2.37;;;1.70;;
7233;SDS011;3658;47.992;10.158;2024-02-23T12:55:31;1.60;;;1.50;;
7233;SDS011;3658;47.992;10.158;2024-02-23T12:57:57;1.57;;;1.47;;
7233;SDS011;3658;47.992;10.158;2024-02-23T13:00:24;1.40;;;1.30;;
7233;SDS011;3658;47.992;10.158;2024-02-23T13:02:52;1.60;;;1.50;;
7233;SDS011;3658;47.992;10.158;2024-02-23T13:05:20;2.17;;;1.80;;
7233;SDS011;3658;47.992;10.158;2024-02-23T13:07:46;1.73;;;1.60;;
7233;SDS011;3658;47.992;10.158;2024-02-23T13:10:13;1.50;;;1.40;;
7233;SDS011;3658;47.992;10.158;2024-02-23T13:12:43;1.80;;;1.70;;
7233;SDS011;3658;47.992;10.158;2024-02-23T13:15:10;1.53;;;1.43;;
7233;SDS011;3658;47.992;10.158;2024-02-23T13:17:36;1.60;;;1.50;;
7233;SDS011;3658;47.992;10.158;2024-02-23T13:20:05;1.80;;;1.60;;
7233;SDS011;3658;47.992;10.158;2024-02-23T13:22:33;1.57;;;1.47;;
7233;SDS011;3658;47.992;10.158;2024-02-23T13:24:59;1.83;;;1.57;;
7233;SDS011;3658;47.992;10.158;2024-02-23T13:27:26;1.53;;;1.43;;
7233;SDS011;3658;47.992;10.158;2024-02-23T13:29:54;1.50;;;1.40;;
7233;SDS011;3658;47.992;10.158;2024-02-23T13:32:21;2.43;;;1.80;;
7233;SDS011;3658;47.992;10.158;2024-02-23T13:34:48;1.93;;;1.70;;
7233;SDS011;3658;47.992;10.158;2024-02-23T13:37:18;1.53;;;1.43;;
7233;SDS011;3658;47.992;10.158;2024-02-23T13:39:45;1.77;;;1.67;;
7233;SDS011;3658;47.992;10.158;2024-02-23T13:42:12;1.40;;;1.30;;
7233;SDS011;3658;47.992;10.158;2024-02-23T13:44:38;1.67;;;1.50;;
7233;SDS011;3658;47.992;10.158;2024-02-23T13:47:05;1.70;;;1.60;;
7233;SDS011;3658;47.992;10.158;2024-02-23T13:49:32;1.50;;;1.40;;
7233;SDS011;3658;47.992;10.158;2024-02-23T13:51:59;1.53;;;1.43;;
7233;SDS011;3658;47.992;10.158;2024-02-23T13:54:27;1.77;;;1.67;;
7233;SDS011;3658;47.992;10.158;2024-02-23T13:56:53;1.50;;;1.40;;
7233;SDS011;3658;47.992;10.158;2024-02-23T13:59:20;1.70;;;1.60;;
7233;SDS011;3658;47.992;10.158;2024-02-23T14:01:47;2.50;;;1.70;;
7233;SDS011;3658;47.992;10.158;2024-02-23T14:04:14;1.90;;;1.70;;
7233;SDS011;3658;47.992;10.158;2024-02-23T14:06:41;1.77;;;1.67;;
7233;SDS011;3658;47.992;10.158;2024-02-23T14:09:09;1.80;;;1.70;;
7233;SDS011;3658;47.992;10.158;2024-02-23T14:11:37;2.20;;;2.00;;
7233;SDS011;3658;47.992;10.158;2024-02-23T14:14:05;2.30;;;2.10;;
7233;SDS011;3658;47.992;10.158;2024-02-23T14:16:32;1.87;;;1.60;;
7233;SDS011;3658;47.992;10.158;2024-02-23T14:18:59;2.40;;;2.20;;
7233;SDS011;3658;47.992;10.158;2024-02-23T14:21:26;2.00;;;1.80;;
7233;SDS011;3658;47.992;10.158;2024-02-23T14:23:53;2.23;;;1.90;;
7233;SDS011;3658;47.992;10.158;2024-02-23T14:26:20;2.53;;;2.00;;
7233;SDS011;3658;47.992;10.158;2024-02-23T14:28:48;2.60;;;2.07;;
7233;SDS011;3658;47.992;10.158;2024-02-23T14:31:15;2.67;;;2.27;;
7233;SDS011;3658;47.992;10.158;2024-02-23T14:33:41;1.87;;;1.77;;
7233;SDS011;3658;47.992;10.158;2024-02-23T14:36:08;2.23;;;1.90;;
7233;SDS011;3658;47.992;10.158;2024-02-23T14:38:35;3.17;;;2.40;;
7233;SDS011;3658;47.992;10.158;2024-02-23T14:41:02;2.43;;;2.03;;
7233;SDS011;3658;47.992;10.158;2024-02-23T14:43:29;2.43;;;2.23;;
7233;SDS011;3658;47.992;10.158;2024-02-23T14:45:58;2.87;;;2.30;;
7233;SDS011;3658;47.992;10.158;2024-02-23T14:48:24;2.43;;;2.20;;
7233;SDS011;3658;47.992;10.158;2024-02-23T14:50:51;3.47;;;2.10;;
7233;SDS011;3658;47.992;10.158;2024-02-23T14:53:18;2.40;;;2.10;;
7233;SDS011;3658;47.992;10.158;2024-02-23T14:55:45;2.60;;;2.20;;
7233;SDS011;3658;47.992;10.158;2024-02-23T14:58:12;3.57;;;2.37;;
7233;SDS011;3658;47.992;10.158;2024-02-23T15:00:39;2.17;;;1.97;;